createdAt,value
2019-02-26T00:00:50.154Z,5.60
2019-02-26T00:02:56.322Z,4.67
2019-02-26T00:04:58.633Z,5.30
2019-02-26T00:07:03.374Z,4.90
2019-02-26T00:09:09.332Z,5.20
2019-02-26T00:11:13.967Z,5.10
2019-02-26T00:13:18.337Z,4.77
2019-02-26T00:15:22.677Z,4.60
2019-02-26T00:17:27.014Z,5.13
2019-02-26T00:19:31.405Z,7.40
2019-02-26T00:21:35.746Z,5.97
2019-02-26T00:23:41.639Z,5.83
2019-02-26T00:25:44.538Z,5.67
2019-02-26T00:27:49.639Z,6.00
2019-02-26T00:29:55.132Z,6.40
2019-02-26T00:31:57.867Z,6.43
2019-02-26T00:34:02.239Z,5.80
2019-02-26T00:36:07.319Z,6.57
2019-02-26T00:38:11.673Z,5.43
2019-02-26T00:40:19.045Z,4.50
2019-02-26T00:42:23.639Z,4.53
2019-02-26T00:44:25.244Z,4.93
2019-02-26T00:46:30.276Z,4.37
2019-02-26T00:48:35.901Z,4.10
2019-02-26T00:50:39.802Z,4.17
2019-02-26T00:52:42.704Z,4.70
2019-02-26T00:54:47.107Z,4.60
2019-02-26T00:56:51.425Z,4.47
2019-02-26T00:58:55.771Z,5.33
2019-02-26T01:01:00.157Z,4.63
2019-02-26T01:03:06.086Z,4.77
2019-02-26T01:05:10.792Z,4.53
2019-02-26T01:07:13.439Z,4.70
2019-02-26T01:09:17.861Z,4.67
2019-02-26T01:11:23.833Z,4.63
2019-02-26T01:13:28.458Z,3.83
2019-02-26T01:15:31.057Z,5.07
2019-02-26T01:17:35.745Z,4.53
2019-02-26T01:19:40.727Z,4.00
2019-02-26T01:21:44.289Z,4.80
2019-02-26T01:23:48.670Z,5.83
2019-02-26T01:25:54.668Z,4.77
2019-02-26T01:27:58.579Z,5.60
2019-02-26T01:30:03.432Z,4.87
2019-02-26T01:32:08.885Z,4.37
2019-02-26T01:34:12.002Z,5.07
2019-02-26T01:36:16.228Z,5.37
2019-02-26T01:38:21.335Z,4.17
2019-02-26T01:40:25.745Z,5.50
2019-02-26T01:42:29.852Z,4.70
2019-02-26T01:44:35.096Z,5.83
2019-02-26T01:46:38.821Z,4.07
2019-02-26T01:48:41.489Z,3.97
2019-02-26T01:50:45.877Z,4.30
2019-02-26T01:52:51.870Z,4.53
2019-02-26T01:54:55.836Z,3.63
2019-02-26T01:56:59.001Z,4.37
2019-02-26T01:59:03.373Z,4.90
2019-02-26T02:01:09.988Z,4.40
2019-02-26T02:03:12.191Z,5.30
2019-02-26T02:05:16.635Z,4.93
2019-02-26T02:07:21.927Z,4.27
2019-02-26T02:09:25.572Z,5.30
2019-02-26T02:11:31.208Z,4.47
2019-02-26T02:13:35.774Z,5.57
2019-02-26T02:15:40.082Z,5.83
2019-02-26T02:17:43.241Z,5.70
2019-02-26T02:19:47.605Z,5.30
2019-02-26T02:21:53.793Z,5.67
2019-02-26T02:23:56.386Z,5.63
2019-02-26T02:26:04.083Z,5.53
2019-02-26T02:28:05.170Z,5.63
2019-02-26T02:30:18.564Z,5.00
2019-02-26T02:32:16.656Z,5.03
2019-02-26T02:34:23.253Z,4.87
2019-02-26T02:36:26.397Z,5.37
2019-02-26T02:38:29.923Z,5.80
2019-02-26T02:40:34.340Z,5.50
2019-02-26T02:42:40.774Z,5.07
2019-02-26T02:44:44.832Z,5.07
2019-02-26T02:46:47.486Z,5.67
2019-02-26T02:48:51.928Z,5.43
2019-02-26T02:50:56.315Z,5.23
2019-02-26T02:53:02.225Z,4.70
2019-02-26T02:55:06.982Z,5.27
2019-02-26T02:57:10.061Z,5.43
2019-02-26T02:59:14.648Z,5.23
2019-02-26T03:01:21.266Z,4.63
2019-02-26T03:03:23.009Z,4.37
2019-02-26T03:05:31.301Z,5.33
2019-02-26T03:07:31.756Z,4.37
2019-02-26T03:09:37.734Z,5.07
2019-02-26T03:11:41.992Z,3.83
2019-02-26T03:13:45.868Z,3.77
2019-02-26T03:15:50.146Z,4.17
2019-02-26T03:17:53.633Z,4.77
2019-02-26T03:19:58.603Z,5.03
2019-02-26T03:22:02.365Z,4.77
2019-02-26T03:24:08.649Z,5.40
2019-02-26T03:26:14.778Z,4.87
2019-02-26T03:28:15.519Z,4.60
2019-02-26T03:30:27.498Z,5.10
2019-02-26T03:32:24.348Z,5.53
2019-02-26T03:34:28.731Z,5.07
2019-02-26T03:36:34.161Z,5.80
2019-02-26T03:38:37.466Z,4.90
2019-02-26T03:40:41.841Z,5.50
2019-02-26T03:42:46.397Z,6.00
2019-02-26T03:44:50.668Z,5.80
2019-02-26T03:46:54.993Z,6.30
2019-02-26T03:49:02.514Z,6.20
2019-02-26T03:51:03.781Z,5.37
2019-02-26T03:53:09.905Z,5.23
2019-02-26T03:55:15.414Z,5.43
2019-02-26T03:57:19.311Z,4.93
2019-02-26T03:59:21.636Z,5.03
2019-02-26T04:01:26.089Z,5.67
2019-02-26T04:03:32.138Z,4.93
2019-02-26T04:05:34.923Z,5.50
2019-02-26T04:07:39.375Z,4.70
2019-02-26T04:09:44.413Z,5.63
2019-02-26T04:11:50.340Z,5.30
2019-02-26T04:13:56.126Z,4.97
2019-02-26T04:15:59.092Z,6.47
2019-02-26T04:18:01.543Z,5.13
2019-02-26T04:20:06.722Z,5.70
2019-02-26T04:22:23.353Z,5.07
2019-02-26T04:24:29.047Z,4.83
2019-02-26T04:26:51.725Z,5.10
2019-02-26T04:29:05.208Z,6.77
2019-02-26T04:33:27.834Z,6.40
2019-02-26T04:35:44.796Z,6.70
2019-02-26T04:38:29.098Z,7.53
2019-02-26T04:40:41.010Z,6.30
2019-02-26T04:42:55.602Z,7.03
2019-02-26T04:45:42.053Z,6.43
2019-02-26T04:47:48.818Z,6.00
2019-02-26T04:49:50.807Z,6.77
2019-02-26T04:51:55.151Z,4.07
2019-02-26T04:54:02.034Z,5.27
2019-02-26T04:56:06.318Z,5.87
2019-02-26T04:58:08.754Z,5.77
2019-02-26T05:00:12.721Z,6.03
2019-02-26T05:02:17.195Z,5.23
2019-02-26T05:04:21.630Z,7.33
2019-02-26T05:06:26.039Z,5.93
2019-02-26T05:08:32.080Z,4.57
2019-02-26T05:10:34.835Z,5.37
2019-02-26T05:12:40.179Z,7.13
2019-02-26T05:14:43.623Z,5.63
2019-02-26T05:16:47.999Z,5.63
2019-02-26T05:18:55.017Z,6.27
2019-02-26T05:20:56.790Z,6.67
2019-02-26T05:23:02.980Z,5.60
2019-02-26T05:25:07.431Z,5.43
2019-02-26T05:27:15.642Z,5.37
2019-02-26T05:29:19.270Z,5.77
2019-02-26T05:31:23.689Z,5.83
2019-02-26T05:33:30.419Z,5.27
2019-02-26T05:35:32.466Z,5.97
2019-02-26T05:37:40.220Z,6.60
2019-02-26T05:39:43.332Z,6.17
2019-02-26T05:41:45.657Z,6.13
2019-02-26T05:43:55.331Z,6.00
2019-02-26T05:45:57.417Z,6.13
2019-02-26T05:47:59.066Z,6.27
2019-02-26T05:50:06.239Z,5.80
2019-02-26T05:52:07.507Z,6.37
2019-02-26T05:54:14.785Z,4.83
2019-02-26T05:56:17.154Z,5.00
2019-02-26T05:58:21.443Z,6.23
2019-02-26T06:00:28.944Z,5.97
2019-02-26T06:02:29.561Z,5.43
2019-02-26T06:04:35.180Z,4.80
2019-02-26T06:06:38.407Z,6.07
2019-02-26T06:08:42.829Z,5.00
2019-02-26T06:10:47.227Z,7.30
2019-02-26T06:12:51.609Z,4.93
2019-02-26T06:15:00.255Z,5.10
2019-02-26T06:17:00.302Z,5.13
2019-02-26T06:19:06.146Z,4.97
2019-02-26T06:21:09.184Z,6.03
2019-02-26T06:23:13.571Z,6.33
2019-02-26T06:25:23.295Z,5.90
2019-02-26T06:27:24.688Z,5.63
2019-02-26T06:29:27.409Z,6.17
2019-02-26T06:31:31.136Z,5.60
2019-02-26T06:33:36.607Z,5.33
2019-02-26T06:35:40.639Z,5.13
2019-02-26T06:37:44.258Z,5.30
2019-02-26T06:39:50.568Z,5.03
2019-02-26T06:41:52.944Z,7.07
2019-02-26T06:43:57.295Z,8.10
2019-02-26T06:46:02.674Z,7.93
2019-02-26T06:48:06.091Z,7.43
2019-02-26T06:50:12.980Z,6.73
2019-02-26T06:52:16.265Z,6.00
2019-02-26T06:54:22.144Z,6.50
2019-02-26T06:56:23.950Z,7.63
2019-02-26T06:58:28.953Z,8.23
2019-02-26T07:00:33.333Z,6.63
2019-02-26T07:02:37.696Z,6.23
2019-02-26T07:04:42.029Z,6.97
2019-02-26T07:06:46.393Z,6.10
2019-02-26T07:08:51.090Z,5.87
2019-02-26T07:10:55.117Z,5.40
2019-02-26T07:12:59.502Z,7.00
2019-02-26T07:15:03.995Z,5.77
2019-02-26T07:17:08.358Z,6.40
2019-02-26T07:19:14.492Z,6.57
2019-02-26T07:21:17.125Z,5.87
2019-02-26T07:23:21.485Z,5.97
2019-02-26T07:25:25.866Z,7.20
2019-02-26T07:27:32.004Z,5.67
2019-02-26T07:29:37.539Z,7.40
2019-02-26T07:31:39.014Z,7.07
2019-02-26T07:33:43.389Z,7.50
2019-02-26T07:35:47.716Z,7.50
2019-02-26T07:37:52.706Z,6.17
2019-02-26T07:39:56.469Z,7.83
2019-02-26T07:42:00.833Z,9.33
2019-02-26T07:44:09.033Z,8.27
2019-02-26T07:46:11.756Z,9.73
2019-02-26T07:48:18.627Z,12.03
2019-02-26T07:50:18.360Z,10.53
2019-02-26T07:52:24.345Z,10.20
2019-02-26T07:54:28.720Z,11.57
2019-02-26T07:56:32.722Z,9.20
2019-02-26T07:58:36.808Z,9.70
2019-02-26T08:00:42.318Z,9.07
2019-02-26T08:02:44.552Z,10.43
2019-02-26T08:04:48.959Z,10.60
2019-02-26T08:06:54.959Z,8.97
2019-02-26T08:08:57.783Z,9.10
2019-02-26T08:11:02.163Z,9.90
2019-02-26T08:13:08.039Z,7.20
2019-02-26T08:15:15.533Z,11.20
2019-02-26T08:17:17.475Z,9.50
2019-02-26T08:19:21.826Z,10.97
2019-02-26T08:21:27.068Z,9.83
2019-02-26T08:23:30.576Z,9.73
2019-02-26T08:25:34.918Z,9.80
2019-02-26T08:27:39.233Z,8.93
2019-02-26T08:29:43.619Z,9.13
2019-02-26T08:31:49.546Z,9.03
2019-02-26T08:33:52.862Z,8.03
2019-02-26T08:35:57.242Z,9.83
2019-02-26T08:38:05.684Z,10.67
2019-02-26T08:40:09.378Z,9.90
2019-02-26T08:42:12.106Z,9.37
2019-02-26T08:44:16.430Z,9.13
2019-02-26T08:46:20.846Z,10.60
2019-02-26T08:48:26.979Z,9.07
2019-02-26T08:50:32.973Z,7.70
2019-02-26T08:52:33.956Z,8.33
2019-02-26T08:54:38.353Z,7.70
2019-02-26T08:56:42.706Z,7.17
2019-02-26T08:58:47.022Z,7.03
2019-02-26T09:00:51.379Z,7.53
2019-02-26T09:02:56.663Z,8.60
2019-02-26T09:05:01.567Z,6.80
2019-02-26T09:07:04.529Z,9.03
2019-02-26T09:09:09.726Z,8.70
2019-02-26T09:11:14.244Z,8.63
2019-02-26T09:13:18.759Z,8.87
2019-02-26T09:15:23.000Z,6.03
2019-02-26T09:17:29.890Z,6.83
2019-02-26T09:19:35.421Z,7.37
2019-02-26T09:21:39.481Z,7.07
2019-02-26T09:23:42.391Z,6.80
2019-02-26T09:25:51.540Z,6.63
2019-02-26T09:27:51.350Z,6.77
2019-02-26T09:29:56.088Z,6.17
2019-02-26T09:32:00.510Z,6.33
2019-02-26T09:34:04.871Z,6.40
2019-02-26T09:36:12.653Z,7.03
2019-02-26T09:38:15.021Z,8.77
2019-02-26T09:40:20.395Z,10.87
2019-02-26T09:42:23.374Z,8.07
2019-02-26T09:44:29.245Z,7.70
2019-02-26T09:46:33.566Z,7.60
2019-02-26T09:48:38.173Z,7.50
2019-02-26T09:50:41.915Z,8.10
2019-02-26T09:52:45.202Z,7.77
2019-02-26T09:54:51.105Z,7.17
2019-02-26T09:56:53.832Z,6.97
2019-02-26T09:58:58.159Z,6.60
2019-02-26T10:01:02.505Z,5.33
2019-02-26T10:03:08.399Z,6.77
2019-02-26T10:05:13.516Z,7.53
2019-02-26T10:07:15.738Z,8.97
2019-02-26T10:09:20.710Z,6.93
2019-02-26T10:11:26.127Z,6.90
2019-02-26T10:13:28.998Z,7.20
2019-02-26T10:15:34.882Z,7.20
2019-02-26T10:17:40.155Z,7.87
2019-02-26T10:19:43.005Z,7.50
2019-02-26T10:21:46.659Z,7.47
2019-02-26T10:23:52.141Z,6.97
2019-02-26T10:25:57.558Z,6.97
2019-02-26T10:28:05.731Z,6.10
2019-02-26T10:30:08.409Z,6.97
2019-02-26T10:32:11.781Z,6.93
2019-02-26T10:34:15.754Z,6.07
2019-02-26T10:36:19.071Z,5.50
2019-02-26T10:38:24.195Z,6.87
2019-02-26T10:40:35.242Z,5.73
2019-02-26T10:42:39.628Z,6.30
2019-02-26T10:44:36.729Z,6.67
2019-02-26T10:46:42.563Z,5.57
2019-02-26T10:48:46.341Z,5.30
2019-02-26T10:50:51.930Z,5.70
2019-02-26T10:52:57.746Z,5.87
2019-02-26T10:54:58.825Z,5.03
2019-02-26T10:57:07.459Z,5.87
2019-02-26T10:59:09.460Z,5.20
2019-02-26T11:01:13.092Z,5.97
2019-02-26T11:03:19.863Z,6.67
2019-02-26T11:05:26.256Z,7.10
2019-02-26T11:07:27.053Z,6.20
2019-02-26T11:09:31.987Z,5.77
2019-02-26T11:11:37.367Z,5.67
2019-02-26T11:13:42.247Z,6.70
2019-02-26T11:15:43.971Z,5.77
2019-02-26T11:17:50.476Z,5.53
2019-02-26T11:19:53.668Z,6.77
2019-02-26T11:22:00.852Z,6.73
2019-02-26T11:24:04.154Z,6.50
2019-02-26T11:26:10.713Z,6.40
2019-02-26T11:28:12.985Z,7.40
2019-02-26T11:30:20.550Z,6.53
2019-02-26T11:32:22.151Z,6.17
2019-02-26T11:34:28.567Z,7.63
2019-02-26T11:36:32.958Z,7.47
2019-02-26T11:38:36.995Z,6.50
2019-02-26T11:40:39.716Z,7.30
2019-02-26T11:42:44.460Z,7.40
2019-02-26T11:44:48.458Z,7.23
2019-02-26T11:46:54.319Z,7.27
2019-02-26T11:48:57.546Z,6.33
2019-02-26T11:51:01.589Z,6.70
2019-02-26T11:53:09.300Z,6.50
2019-02-26T11:55:11.370Z,6.47
2019-02-26T11:57:17.634Z,7.03
2019-02-26T11:59:20.051Z,7.73
2019-02-26T12:01:24.463Z,6.43
2019-02-26T12:03:32.731Z,8.30
2019-02-26T12:05:35.503Z,6.67
2019-02-26T12:07:37.663Z,6.63
2019-02-26T12:09:43.339Z,7.27
2019-02-26T12:11:46.498Z,8.60
2019-02-26T12:13:53.026Z,8.00
2019-02-26T12:15:55.250Z,9.00
2019-02-26T12:17:59.684Z,7.23
2019-02-26T12:20:04.299Z,7.67
2019-02-26T12:22:08.664Z,8.33
2019-02-26T12:24:13.042Z,7.33
2019-02-26T12:26:19.190Z,7.90
2019-02-26T12:28:21.927Z,7.67
2019-02-26T12:30:26.409Z,8.07
2019-02-26T12:32:30.798Z,7.60
2019-02-26T12:34:44.604Z,8.57
2019-02-26T12:36:48.177Z,7.07
2019-02-26T12:38:53.436Z,6.87
2019-02-26T12:40:54.913Z,8.03
2019-02-26T12:43:01.851Z,8.83
2019-02-26T12:45:06.708Z,8.00
2019-02-26T12:47:08.088Z,7.87
2019-02-26T12:49:14.859Z,8.10
2019-02-26T12:51:25.243Z,8.47
2019-02-26T12:53:27.370Z,7.63
2019-02-26T12:55:34.527Z,6.90
2019-02-26T12:57:36.256Z,7.53
2019-02-26T12:59:40.662Z,7.40
2019-02-26T13:01:46.222Z,9.30
2019-02-26T13:03:53.890Z,7.07
2019-02-26T13:05:53.850Z,8.00
2019-02-26T13:07:58.230Z,7.67
2019-02-26T13:10:03.867Z,7.40
2019-02-26T13:12:07.302Z,7.73
2019-02-26T13:14:11.681Z,7.53
2019-02-26T13:16:16.043Z,8.23
2019-02-26T13:18:20.442Z,7.10
2019-02-26T13:20:24.803Z,7.87
2019-02-26T13:22:29.141Z,7.03
2019-02-26T13:24:33.506Z,6.03
2019-02-26T13:26:39.081Z,6.80
2019-02-26T13:28:46.762Z,6.37
2019-02-26T13:30:46.696Z,5.70
2019-02-26T13:34:56.510Z,6.00
2019-02-26T13:37:00.033Z,6.00
2019-02-26T13:39:05.234Z,7.13
2019-02-26T13:41:28.975Z,7.67
2019-02-26T13:43:14.161Z,6.50
2019-02-26T13:45:20.039Z,7.13
2019-02-26T13:47:25.332Z,7.80
2019-02-26T13:49:29.761Z,8.40
2019-02-26T13:51:34.152Z,6.67
2019-02-26T13:53:38.853Z,7.90
2019-02-26T13:55:43.256Z,7.87
2019-02-26T13:57:47.618Z,7.23
2019-02-26T13:59:52.033Z,7.50
2019-02-26T14:01:56.473Z,7.77
2019-02-26T14:04:00.876Z,7.23
2019-02-26T14:06:05.260Z,7.60
2019-02-26T14:08:09.706Z,7.07
2019-02-26T14:10:15.059Z,6.70
2019-02-26T14:12:19.439Z,7.13
2019-02-26T14:14:23.778Z,7.33
2019-02-26T14:16:32.546Z,6.60
2019-02-26T14:18:32.506Z,6.23
2019-02-26T14:20:36.975Z,7.27
2019-02-26T14:22:41.433Z,6.10
2019-02-26T14:24:45.763Z,5.83
2019-02-26T14:26:50.170Z,7.03
2019-02-26T14:28:54.511Z,7.03
2019-02-26T14:30:58.886Z,6.57
2019-02-26T14:33:03.250Z,5.67
2019-02-26T14:35:08.633Z,5.73
2019-02-26T14:37:13.906Z,5.57
2019-02-26T14:39:18.245Z,7.57
2019-02-26T14:41:22.597Z,6.53
2019-02-26T14:43:27.004Z,6.87
2019-02-26T14:45:31.376Z,7.13
2019-02-26T14:47:35.852Z,7.50
2019-02-26T14:49:40.210Z,5.87
2019-02-26T14:51:44.542Z,5.93
2019-02-26T14:53:49.264Z,6.50
2019-02-26T14:55:53.434Z,5.40
2019-02-26T14:57:57.798Z,6.17
2019-02-26T15:00:02.173Z,5.87
2019-02-26T15:02:06.518Z,5.90
2019-02-26T15:04:10.920Z,5.30
2019-02-26T15:06:15.663Z,5.23
2019-02-26T15:08:19.622Z,5.07
2019-02-26T15:10:24.020Z,5.50
2019-02-26T15:12:28.375Z,5.50
2019-02-26T15:14:32.778Z,5.53
2019-02-26T15:16:37.148Z,5.63
2019-02-26T15:18:41.516Z,4.83
2019-02-26T15:20:45.920Z,5.23
2019-02-26T15:22:50.270Z,5.20
2019-02-26T15:24:54.641Z,6.03
2019-02-26T15:26:59.027Z,6.03
2019-02-26T15:29:03.402Z,6.00
2019-02-26T15:31:07.923Z,6.03
2019-02-26T15:33:12.350Z,6.80
2019-02-26T15:35:16.809Z,6.47
2019-02-26T15:37:21.177Z,8.20
2019-02-26T15:39:25.541Z,6.27
2019-02-26T15:41:29.947Z,7.60
2019-02-26T15:43:34.289Z,6.93
2019-02-26T15:45:38.618Z,7.17
2019-02-26T15:47:43.101Z,6.57
2019-02-26T15:49:47.463Z,6.80
2019-02-26T15:51:51.827Z,7.23
2019-02-26T15:53:56.450Z,6.17
2019-02-26T15:56:00.575Z,6.30
2019-02-26T15:58:06.805Z,5.77
2019-02-26T16:00:11.541Z,5.90
2019-02-26T16:02:15.903Z,5.33
2019-02-26T16:04:20.331Z,6.30
2019-02-26T16:06:24.718Z,5.63
2019-02-26T16:08:34.654Z,5.53
2019-02-26T16:10:33.461Z,5.53
2019-02-26T16:12:37.854Z,6.50
2019-02-26T16:14:42.216Z,5.30
2019-02-26T16:16:46.540Z,5.30
2019-02-26T16:18:50.969Z,6.20
2019-02-26T16:20:55.376Z,5.77
2019-02-26T16:22:59.723Z,6.53
2019-02-26T16:25:07.440Z,7.27
2019-02-26T16:27:08.495Z,6.60
2019-02-26T16:29:12.869Z,7.20
2019-02-26T16:31:17.283Z,8.50
2019-02-26T16:33:21.698Z,8.30
2019-02-26T16:35:26.088Z,7.83
2019-02-26T16:37:30.454Z,8.80
2019-02-26T16:39:34.814Z,8.43
2019-02-26T16:41:39.239Z,8.67
2019-02-26T16:43:43.622Z,8.50
2019-02-26T16:45:48.093Z,8.47
2019-02-26T16:47:52.505Z,8.93
2019-02-26T16:50:02.112Z,9.07
2019-02-26T16:52:01.368Z,8.63
2019-02-26T16:54:07.430Z,8.60
2019-02-26T16:56:10.372Z,8.43
2019-02-26T16:58:14.871Z,9.23
2019-02-26T17:00:20.692Z,9.63
2019-02-26T17:02:27.198Z,8.43
2019-02-26T17:04:30.892Z,8.77
2019-02-26T17:06:33.784Z,9.43
2019-02-26T17:08:38.233Z,9.30
2019-02-26T17:10:42.654Z,9.80
2019-02-26T17:12:50.808Z,9.30
2019-02-26T17:14:55.230Z,8.73
2019-02-26T17:17:01.579Z,9.43
2019-02-26T17:19:04.078Z,9.43
2019-02-26T17:21:08.530Z,9.13
2019-02-26T17:23:14.081Z,9.13
2019-02-26T17:25:17.386Z,9.33
2019-02-26T17:27:21.766Z,10.10
2019-02-26T17:29:26.157Z,8.97
2019-02-26T17:31:30.733Z,9.33
2019-02-26T17:33:35.204Z,8.57
2019-02-26T17:35:39.534Z,8.67
2019-02-26T17:37:43.934Z,8.57
2019-02-26T17:39:48.318Z,8.20
2019-02-26T17:41:52.730Z,8.07
2019-02-26T17:43:59.619Z,7.33
2019-02-26T17:46:01.553Z,7.77
2019-02-26T17:48:06.039Z,7.90
2019-02-26T17:50:13.483Z,8.67
2019-02-26T17:52:17.969Z,7.83
2019-02-26T17:54:24.325Z,8.90
2019-02-26T17:56:28.831Z,8.00
2019-02-26T17:58:33.246Z,8.90
2019-02-26T18:00:39.698Z,8.50
2019-02-26T18:02:44.822Z,8.37
2019-02-26T18:04:49.282Z,8.97
2019-02-26T18:06:53.801Z,10.43
2019-02-26T18:08:58.255Z,8.97
2019-02-26T18:11:02.770Z,9.00
2019-02-26T18:13:09.126Z,8.33
2019-02-26T18:15:16.650Z,9.70
2019-02-26T18:17:18.178Z,9.60
2019-02-26T18:19:22.565Z,9.73
2019-02-26T18:21:26.918Z,9.17
2019-02-26T18:23:31.266Z,12.37
2019-02-26T18:25:35.835Z,9.93
2019-02-26T18:27:40.347Z,14.57
2019-02-26T18:29:44.784Z,15.43
2019-02-26T18:31:49.259Z,14.57
2019-02-26T18:33:53.627Z,11.67
2019-02-26T18:35:59.351Z,10.57
2019-02-26T18:38:02.573Z,14.77
2019-02-26T18:40:07.589Z,13.33
2019-02-26T18:42:11.834Z,11.97
2019-02-26T18:44:17.807Z,12.97
2019-02-26T18:46:20.791Z,13.63
2019-02-26T18:48:25.449Z,9.97
2019-02-26T18:50:29.971Z,10.70
2019-02-26T18:52:34.431Z,11.40
2019-02-26T18:54:38.849Z,11.80
2019-02-26T18:56:43.246Z,9.63
2019-02-26T18:58:49.098Z,10.10
2019-02-26T19:00:52.132Z,9.90
2019-02-26T19:02:56.523Z,9.53
2019-02-26T19:05:01.765Z,9.30
2019-02-26T19:07:06.266Z,9.50
2019-02-26T19:09:12.326Z,9.43
2019-02-26T19:11:16.856Z,9.73
2019-02-26T19:13:21.247Z,11.20
2019-02-26T19:15:25.708Z,11.03
2019-02-26T19:17:30.114Z,12.43
2019-02-26T19:19:34.581Z,11.33
2019-02-26T19:21:39.094Z,10.73
2019-02-26T19:23:43.653Z,10.63
2019-02-26T19:25:48.814Z,11.23
2019-02-26T19:27:53.687Z,12.53
2019-02-26T19:29:57.825Z,9.53
2019-02-26T19:32:02.270Z,8.90
2019-02-26T19:34:06.747Z,8.30
2019-02-26T19:36:13.061Z,9.67
2019-02-26T19:38:15.721Z,8.83
2019-02-26T19:40:21.699Z,10.00
2019-02-26T19:42:26.094Z,8.43
2019-02-26T19:44:30.624Z,8.33
2019-02-26T19:46:35.704Z,8.07
2019-02-26T19:48:40.277Z,7.43
2019-02-26T19:50:47.941Z,8.30
2019-02-26T19:52:56.616Z,7.27
2019-02-26T19:54:53.631Z,8.50
2019-02-26T19:56:58.101Z,7.23
2019-02-26T19:59:03.903Z,8.63
2019-02-26T20:01:08.312Z,8.53
2019-02-26T20:03:12.762Z,8.67
2019-02-26T20:05:17.215Z,7.47
2019-02-26T20:07:21.711Z,8.00
2019-02-26T20:09:26.147Z,8.33
2019-02-26T20:11:30.591Z,7.73
2019-02-26T20:13:35.061Z,8.27
2019-02-26T20:15:39.591Z,8.10
2019-02-26T20:17:44.098Z,9.10
2019-02-26T20:19:48.595Z,7.50
2019-02-26T20:21:53.110Z,7.37
2019-02-26T20:23:57.574Z,9.27
2019-02-26T20:26:01.993Z,8.17
2019-02-26T20:28:07.072Z,9.13
2019-02-26T20:30:14.055Z,8.53
2019-02-26T20:32:18.595Z,9.10
2019-02-26T20:34:23.153Z,7.70
2019-02-26T20:36:29.622Z,7.93
2019-02-26T20:38:35.202Z,7.33
2019-02-26T20:40:38.768Z,7.20
2019-02-26T20:42:43.363Z,7.33
2019-02-26T20:44:47.867Z,8.87
2019-02-26T20:46:52.278Z,6.93
2019-02-26T20:48:56.825Z,7.83
2019-02-26T20:51:01.265Z,8.47
2019-02-26T20:53:06.514Z,9.27
2019-02-26T20:55:12.062Z,9.07
2019-02-26T20:57:16.523Z,9.37
2019-02-26T20:59:22.101Z,13.00
2019-02-26T21:01:26.582Z,16.30
2019-02-26T21:03:53.381Z,13.93
2019-02-26T21:05:57.883Z,12.70
2019-02-26T21:08:18.584Z,9.13
2019-02-26T21:10:23.786Z,9.10
2019-02-26T21:12:28.797Z,8.90
2019-02-26T21:14:32.618Z,10.37
2019-02-26T21:16:37.039Z,10.37
2019-02-26T21:18:41.447Z,10.30
2019-02-26T21:20:45.896Z,10.23
2019-02-26T21:22:54.657Z,8.57
2019-02-26T21:24:55.241Z,8.50
2019-02-26T21:26:59.690Z,8.60
2019-02-26T21:29:06.267Z,8.47
2019-02-26T21:31:08.559Z,8.87
2019-02-26T21:33:13.011Z,8.00
2019-02-26T21:35:20.214Z,8.23
2019-02-26T21:37:21.973Z,7.13
2019-02-26T21:39:26.567Z,7.13
2019-02-26T21:41:31.538Z,6.73
2019-02-26T21:43:36.242Z,6.30
2019-02-26T21:45:40.774Z,7.37
2019-02-26T21:47:45.256Z,9.00
2019-02-26T21:49:49.645Z,7.77
2019-02-26T21:51:55.222Z,7.77
2019-02-26T21:53:58.518Z,8.10
2019-02-26T21:56:02.857Z,7.00
2019-02-26T21:58:07.279Z,6.47
2019-02-26T22:00:13.520Z,7.10
2019-02-26T22:02:18.878Z,6.83
2019-02-26T22:04:23.204Z,7.70
2019-02-26T22:06:27.582Z,7.53
2019-02-26T22:08:32.055Z,6.57
2019-02-26T22:10:36.478Z,7.77
2019-02-26T22:12:40.898Z,8.00
2019-02-26T22:14:45.287Z,7.67
2019-02-26T22:16:51.503Z,8.20
2019-02-26T22:18:54.169Z,8.13
2019-02-26T22:20:58.603Z,7.83
2019-02-26T22:23:03.018Z,7.07
2019-02-26T22:25:09.877Z,7.87
2019-02-26T22:27:12.010Z,7.30
2019-02-26T22:29:16.392Z,7.37
2019-02-26T22:31:20.761Z,6.83
2019-02-26T22:33:25.122Z,10.80
2019-02-26T22:35:30.389Z,8.73
2019-02-26T22:37:34.787Z,9.07
2019-02-26T22:39:39.238Z,9.73
2019-02-26T22:41:43.607Z,7.30
2019-02-26T22:43:48.183Z,6.30
2019-02-26T22:45:52.346Z,6.53
2019-02-26T22:47:56.742Z,9.63
2019-02-26T22:50:03.115Z,7.83
2019-02-26T22:52:05.472Z,7.10
2019-02-26T22:54:10.376Z,7.60
2019-02-26T22:56:15.368Z,6.70
2019-02-26T22:58:18.616Z,7.23
2019-02-26T23:00:35.503Z,6.63
2019-02-26T23:02:40.813Z,6.40
2019-02-26T23:04:44.310Z,6.27
2019-02-26T23:06:48.685Z,6.30
2019-02-26T23:08:53.070Z,7.77
2019-02-26T23:10:58.048Z,6.17
2019-02-26T23:13:01.881Z,6.67
2019-02-26T23:15:06.497Z,7.13
2019-02-26T23:17:11.042Z,6.60
2019-02-26T23:19:15.494Z,6.20
2019-02-26T23:21:20.046Z,6.83
2019-02-26T23:23:24.398Z,7.50
2019-02-26T23:25:28.827Z,6.67
2019-02-26T23:27:33.314Z,8.33
2019-02-26T23:29:39.430Z,15.23
2019-02-26T23:31:43.795Z,12.87
2019-02-26T23:33:49.010Z,12.93
2019-02-26T23:35:54.902Z,10.90
2019-02-26T23:37:56.971Z,8.43
2019-02-26T23:40:01.366Z,9.53
2019-02-26T23:42:06.586Z,9.03
2019-02-26T23:44:17.745Z,6.93
2019-02-26T23:46:24.142Z,7.60
2019-02-26T23:48:28.674Z,7.87
2019-02-26T23:50:33.039Z,7.57
2019-02-26T23:52:37.538Z,7.10
2019-02-26T23:54:41.911Z,7.87
2019-02-26T23:56:46.250Z,6.27
2019-02-26T23:58:50.606Z,9.27
